Latest Coastal Weather Observations for Cape Sorell

IDT60701

Issued at 5:03 pm EDT Tuesday 21 November 2017 (issued every 10 minutes, with the page automatically refreshed every 10 minutes)

About coastal observations | Map of coastal stations | Coastal observations for TAS | Marine services | Other Formats
Station Details ID: 097000 Name: CAPE SORELL Lat: -42.20 Lon: 145.17 Height: 19.3 m
Data from the previous 72 hours. | See also: Recent months at Cape Sorell
Date/Time
EDT
Temp
°C
Wind Pressure Rain since
9am
mm
Weather Cloud Vis
km
Sea
Height
m
Swell
Dir  Spd
kts
Gust
kts
hPa Trend Height
m
Period
s
Dir
21/05:00pm 22.1 S 8 9 1018.4 - 0.0 - - - - - - -
21/04:30pm 22.5 S 8 10 1018.5 - 0.0 - - - - - - -
21/04:00pm 22.3 S 8 10 1018.7 - 0.0 - - - - - - -
21/03:30pm 22.9 S 8 10 1019.0 - 0.0 - - - - - - -
21/03:00pm 22.8 S 9 11 1019.3 - 0.0 - - - - - - -
21/02:30pm 22.1 S 8 10 1019.6 - 0.0 - - - - - - -
21/02:00pm 21.9 S 9 10 1019.9 - 0.0 - - - - - - -
21/01:30pm 21.6 S 9 11 1020.4 - 0.0 - - - - - - -
21/01:00pm 21.5 S 8 9 1020.7 - 0.0 - - - - - - -
21/12:30pm 21.9 SSW 7 7 1020.9 - 0.0 - - - - - - -
21/12:00pm 21.8 SSW 5 6 1021.1 - 0.0 - - - - - - -
21/11:30am 21.0 SSW 4 5 1021.2 - 0.0 - - - - - - -
21/11:00am 20.6 SSW 3 4 1021.2 - 0.0 - - - - - - -
21/10:30am 20.2 S 4 4 1021.3 - 0.0 - - - - - - -
21/10:00am 20.7 ESE 3 5 1021.4 - 0.0 - - - - - - -
21/09:30am 22.5 ENE 6 8 1021.3 - 0.0 - - - - - - -
21/09:00am 21.8 ENE 5 7 1021.4 - 0.0 - - - - - - -
21/08:30am 20.3 ENE 7 11 1021.4 - 0.0 - - - - - - -
21/08:00am 19.2 ENE 8 9 1021.4 - 0.0 - - - - - - -
21/07:30am 17.6 ENE 9 11 1021.3 - 0.0 - - - - - - -
21/07:00am 17.1 ENE 10 12 1021.1 - 0.0 - - - - - - -
21/06:30am 16.3 ENE 10 12 1021.0 - 0.0 - - - - - - -
21/06:00am 15.7 ENE 12 14 1020.6 - 0.0 - - - - - - -
21/05:30am 15.6 ENE 12 14 1020.4 - 0.0 - - - - - - -
21/05:00am 15.4 ENE 11 14 1020.4 - 0.0 - - - - - - -
21/04:30am 15.4 ENE 11 13 1020.3 - 0.0 - - - - - - -
21/04:00am 14.9 ENE 10 12 1020.6 - 0.0 - - - - - - -
21/03:30am 15.6 ENE 10 11 1020.8 - 0.0 - - - - - - -
21/03:00am 14.9 NE 7 9 1020.9 - 0.0 - - - - - - -
21/02:30am 15.8 NE 7 8 1021.0 - 0.0 - - - - - - -
21/02:00am 15.3 NE 6 7 1021.3 - 0.0 - - - - - - -
21/01:30am 15.8 NE 3 4 1021.8 - 0.0 - - - - - - -
21/01:00am 15.8 NNE 4 6 1021.9 - 0.0 - - - - - - -
21/12:30am 16.0 N 6 9 1022.2 - 0.0 - - - - - - -
21/12:00am 15.9 NNE 5 8 1022.3 - 0.0 - - - - - - -
 
Date/Time
EDT
Temp
°C
Wind Pressure Rain since
9am
mm
Weather Cloud Vis
km
Sea
Height
m
Swell
Dir  Spd
kts
Gust
kts
hPa Trend Height
m
Period
s
Dir
20/11:30pm 15.6 NNE 5 6 1022.5 - 0.0 - - - - - - -
20/11:00pm 15.5 NE 5 6 1022.7 - 0.0 - - - - - - -
20/10:30pm 15.4 NNE 4 5 1022.8 - 0.0 - - - - - - -
20/10:00pm 14.9 NE 2 4 1022.9 - 0.0 - - - - - - -
20/09:30pm 14.6 SSE 5 7 1022.9 - 0.0 - - - - - - -
20/09:00pm 16.0 S 9 11 1022.7 - 0.0 - - - - - - -
20/08:30pm 16.3 S 9 10 1022.6 - 0.0 - - - - - - -
20/08:00pm 16.8 S 9 10 1022.6 - 0.0 - - - - - - -
20/07:30pm 17.7 S 9 12 1022.4 - 0.0 - - - - - - -
20/07:00pm 18.2 SSW 11 14 1022.3 - 0.0 - - - - - - -
20/06:30pm 18.7 S 11 13 1021.9 - 0.0 - - - - - - -
20/06:00pm 19.2 S 12 14 1021.9 - 0.0 - - - - - - -
20/05:30pm 18.2 SSW 10 13 1022.1 - 0.0 - - - - - - -
20/05:00pm 19.5 SSW 12 14 1022.2 - 0.0 - - - - - - -
20/04:30pm 20.0 S 12 15 1022.0 - 0.0 - - - - - - -
20/04:00pm 20.3 S 13 16 1022.1 - 0.0 - - - - - - -
20/03:30pm 20.7 S 13 16 1022.3 - 0.0 - - - - - - -
20/03:00pm 21.1 S 13 15 1022.4 - 0.0 - - - - - - -
20/02:30pm 21.1 S 13 16 1022.5 - 0.0 - - - - - - -
20/02:00pm 20.9 S 13 15 1022.7 - 0.0 - - - - - - -
20/01:30pm 21.3 S 11 14 1023.0 - 0.0 - - - - - - -
20/01:00pm 21.9 S 10 11 1023.3 - 0.0 - - - - - - -
20/12:30pm 22.1 S 8 10 1023.4 - 0.0 - - - - - - -
20/12:00pm 21.2 SSW 8 8 1023.8 - 0.0 - - - - - - -
20/11:30am 21.6 S 7 9 1024.1 - 0.0 - - - - - - -
20/11:00am 20.9 S 7 9 1024.2 - 0.0 - - - - - - -
20/10:30am 20.3 SSW 5 5 1024.7 - 0.0 - - - - - - -
20/10:00am 20.6 WSW 3 4 1024.8 - 0.0 - - - - - - -
20/09:30am 20.3 NE 1 2 1024.9 - 0.0 - - - - - - -
20/09:00am 20.0 NE 5 6 1024.9 - 0.0 - - - - - - -
20/08:30am 21.3 E 3 5 1024.9 - 0.0 - - - - - - -
20/08:00am 19.7 E 5 7 1024.9 - 0.0 - - - - - - -
20/07:30am 18.4 E 5 7 1024.8 - 0.0 - - - - - - -
20/07:00am 16.9 NE 3 5 1024.7 - 0.0 - - - - - - -
20/06:30am 16.4 E 7 7 1024.6 - 0.0 - - - - - - -
20/06:00am 15.9 ESE 5 6 1024.4 - 0.0 - - - - - - -
20/05:30am 15.3 E 4 5 1024.2 - 0.0 - - - - - - -
20/05:00am 15.3 ESE 3 4 1024.2 - 0.0 - - - - - - -
20/04:30am 15.4 SE 3 4 1024.0 - 0.0 - - - - - - -
20/04:00am 15.5 SSE 3 3 1024.0 - 0.0 - - - - - - -
20/03:30am 15.1 SE 3 4 1023.9 - 0.0 - - - - - - -
20/03:00am 15.2 SSE 4 4 1023.8 - 0.0 - - - - - - -
20/02:30am 15.3 SSE 1 3 1023.8 - 0.0 - - - - - - -
20/02:00am 15.4 WNW 1 2 1023.9 - 0.0 - - - - - - -
20/01:30am 15.9 NNW 2 2 1023.8 - 0.0 - - - - - - -
20/01:00am 15.7 NNW 3 4 1024.0 - 0.0 - - - - - - -
20/12:30am 15.5 NNW 2 3 1024.2 - 0.0 - - - - - - -
20/12:00am 16.0 CALM 0 1 1024.3 - 0.0 - - - - - - -
 
Date/Time
EDT
Temp
°C
Wind Pressure Rain since
9am
mm
Weather Cloud Vis
km
Sea
Height
m
Swell
Dir  Spd
kts
Gust
kts
hPa Trend Height
m
Period
s
Dir
19/11:30pm 16.2 NNW 1 2 1024.4 - 0.0 - - - - - - -
19/11:00pm 16.6 NNE 4 6 1024.2 - 0.0 - - - - - - -
19/10:30pm 16.3 NNE 3 5 1024.3 - 0.0 - - - - - - -
19/10:00pm 16.1 E 3 4 1024.1 - 0.0 - - - - - - -
19/09:30pm 16.5 S 11 14 1023.7 - 0.0 - - - - - - -
19/09:00pm 16.6 S 14 17 1023.2 - 0.0 - - - - - - -
19/08:30pm 16.9 SSW 16 18 1023.1 - 0.0 - - - - - - -
19/08:00pm 17.5 SSW 16 17 1022.7 - 0.0 - - - - - - -
19/07:30pm 18.4 SSW 16 18 1022.2 - 0.0 - - - - - - -
19/07:00pm 19.3 SW 14 16 1022.0 - 0.0 - - - - - - -
19/06:30pm 19.1 SSW 13 16 1021.8 - 0.0 - - - - - - -
19/06:00pm 19.4 SSW 14 16 1021.5 - 0.0 - - - - - - -
19/05:30pm 19.9 S 11 13 1021.5 - 0.0 - - - - - - -
19/05:00pm 20.1 S 12 14 1021.4 - 0.0 - - - - - - -
19/04:30pm 19.9 S 12 14 1021.4 - 0.0 - - - - - - -
19/04:00pm 20.3 S 13 16 1021.5 - 0.0 - - - - - - -
19/03:30pm 20.1 S 13 16 1021.5 - 0.0 - - - - - - -
19/03:00pm 21.0 S 13 16 1022.0 - 0.0 - - - - - - -
19/02:30pm 21.4 S 11 13 1022.2 - 0.0 - - - - - - -
19/02:00pm 21.5 S 12 15 1022.4 - 0.0 - - - - - - -
19/01:30pm 20.9 S 12 15 1022.7 - 0.0 - - - - - - -
19/01:00pm 20.9 S 12 15 1022.8 - 0.0 - - - - - - -
19/12:30pm 21.4 S 9 11 1023.0 - 0.0 - - - - - - -
19/12:00pm 20.8 S 8 9 1023.1 - 0.0 - - - - - - -
19/11:30am 21.5 S 5 6 1023.3 - 0.0 - - - - - - -
19/11:00am 20.7 SW 3 4 1023.2 - 0.0 - - - - - - -
19/10:30am 20.9 SW 2 3 1023.1 - 0.0 - - - - - - -
19/10:00am 21.8 CALM 0 2 1023.1 - 0.0 - - - - - - -
19/09:30am 23.0 ENE 5 7 1023.1 - 0.0 - - - - - - -
19/09:00am 21.4 ENE 7 10 1022.8 - 15.0 - - - - - - -
19/08:30am 20.5 ENE 8 11 1022.5 - 15.0 - - - - - - -
19/08:00am 18.9 ENE 7 11 1022.3 - 15.0 - - - - - - -
19/07:30am 17.7 ENE 11 13 1022.0 - 15.0 - - - - - - -
19/07:00am 16.8 ENE 9 12 1022.0 - 15.0 - - - - - - -
19/06:30am 16.1 ENE 10 11 1021.9 - 15.0 - - - - - - -
19/06:00am 16.1 NE 10 12 1021.7 - 15.0 - - - - - - -
19/05:30am 16.2 NE 9 11 1021.5 - 15.0 - - - - - - -
19/05:00am 16.1 NE 8 10 1021.2 - 15.0 - - - - - - -
19/04:30am 16.0 NE 8 10 1020.9 - 15.0 - - - - - - -
19/04:00am 16.1 NE 8 10 1020.8 - 15.0 - - - - - - -
19/03:30am 16.1 NE 9 11 1020.7 - 15.0 - - - - - - -
19/03:00am 16.5 NE 8 11 1020.8 - 15.0 - - - - - - -
19/02:30am 16.6 NE 6 9 1020.8 - 15.0 - - - - - - -
19/02:00am 16.8 NNE 6 8 1020.8 - 15.0 - - - - - - -
19/01:30am 17.0 NE 5 7 1020.8 - 15.0 - - - - - - -
19/01:00am 16.9 NE 5 6 1020.8 - 15.0 - - - - - - -
19/12:30am 16.4 NNE 3 4 1020.8 - 15.0 - - - - - - -
19/12:00am 17.2 NNW 5 6 1021.0 - 15.0 - - - - - - -
 
Date/Time
EDT
Temp
°C
Wind Pressure Rain since
9am
mm
Weather Cloud Vis
km
Sea
Height
m
Swell
Dir  Spd
kts
Gust
kts
hPa Trend Height
m
Period
s
Dir
18/11:30pm 17.7 NNW 9 11 1020.9 - 15.0 - - - - - - -
18/11:00pm 17.6 NNW 8 9 1020.8 - 15.0 - - - - - - -
18/10:30pm 17.8 N 11 12 1020.8 - 15.0 - - - - - - -
18/10:00pm 17.6 N 10 13 1021.0 - 15.0 - - - - - - -
18/09:30pm 18.1 NNE 5 8 1020.8 - 15.0 - - - - - - -
18/09:00pm 18.8 NNE 3 5 1020.5 - 15.0 - - - - - - -
18/08:30pm 17.5 SSE 4 5 1020.3 - 15.0 - - - - - - -
18/08:00pm 18.5 SSE 5 9 1020.1 - 15.0 - - - - - - -
18/07:30pm 19.4 S 6 7 1019.8 - 15.0 - - - - - - -
18/07:00pm 20.1 S 8 10 1019.3 - 15.0 - - - - - - -
18/06:30pm 20.3 S 7 10 1019.0 - 15.0 - - - - - - -
18/06:00pm 20.6 S 7 10 1018.8 - 15.0 - - - - - - -
18/05:30pm 20.7 S 8 12 1018.8 - 15.0 - - - - - - -

Other Formats:

Comma delimited format used in spreadsheet applications
http://www.bom.gov.au/fwo/IDT60701/IDT60701.94974.axf

JavaScript Object Notation format (JSON) in row-major order
http://www.bom.gov.au/fwo/IDT60701/IDT60701.94974.json